createdAt,value
2018-03-02T00:01:22.382Z,47.20
2018-03-02T00:03:50.635Z,47.20
2018-03-02T00:06:18.111Z,47.20
2018-03-02T00:08:45.624Z,46.90
2018-03-02T00:11:13.162Z,47.40
2018-03-02T00:13:40.739Z,47.40
2018-03-02T00:16:08.239Z,47.20
2018-03-02T00:18:35.724Z,47.40
2018-03-02T00:21:03.226Z,47.40
2018-03-02T00:23:30.819Z,47.00
2018-03-02T00:25:58.299Z,47.30
2018-03-02T00:28:25.774Z,47.30
2018-03-02T00:30:54.047Z,47.30
2018-03-02T00:33:21.653Z,47.30
2018-03-02T00:35:49.131Z,47.30
2018-03-02T00:38:16.626Z,47.30
2018-03-02T00:40:44.111Z,47.40
2018-03-02T00:43:11.597Z,47.40
2018-03-02T00:45:39.186Z,47.30
2018-03-02T00:48:07.464Z,47.30
2018-03-02T00:50:34.937Z,47.40
2018-03-02T00:53:02.512Z,47.30
2018-03-02T00:55:29.994Z,47.90
2018-03-02T00:57:58.238Z,47.40
2018-03-02T01:00:25.818Z,47.20
2018-03-02T01:02:53.359Z,47.30
2018-03-02T01:05:20.839Z,47.30
2018-03-02T01:07:48.331Z,47.30
2018-03-02T01:10:15.810Z,47.30
2018-03-02T01:12:43.295Z,47.30
2018-03-02T01:15:10.803Z,47.30
2018-03-02T01:17:38.328Z,48.00
2018-03-02T01:20:05.810Z,47.30
2018-03-02T01:22:34.075Z,47.50
2018-03-02T01:25:01.571Z,47.40
2018-03-02T01:27:29.819Z,47.40
2018-03-02T01:29:57.319Z,47.30
2018-03-02T01:32:24.799Z,47.30
2018-03-02T01:34:53.042Z,47.90
2018-03-02T01:37:20.650Z,47.30
2018-03-02T01:39:48.223Z,47.20
2018-03-02T01:42:15.718Z,47.50
2018-03-02T01:44:43.227Z,48.60
2018-03-02T01:47:10.702Z,47.70
2018-03-02T01:49:38.191Z,47.20
2018-03-02T01:52:05.779Z,47.20
2018-03-02T01:54:33.254Z,47.50
2018-03-02T01:57:01.542Z,47.60
2018-03-02T01:59:29.103Z,47.60
2018-03-02T02:01:56.579Z,47.40
2018-03-02T02:04:24.836Z,47.00
2018-03-02T02:06:52.434Z,47.40
2018-03-02T02:09:19.923Z,47.80
2018-03-02T02:11:48.169Z,47.50
2018-03-02T02:14:15.701Z,47.40
2018-03-02T02:16:43.274Z,47.40
2018-03-02T02:19:10.759Z,47.30
2018-03-02T02:21:38.315Z,47.30
2018-03-02T02:24:05.804Z,47.30
2018-03-02T02:26:33.287Z,47.40
2018-03-02T02:29:00.791Z,47.30
2018-03-02T02:31:28.371Z,47.30
2018-03-02T02:33:56.660Z,47.90
2018-03-02T02:36:24.943Z,47.90
2018-03-02T02:38:52.431Z,47.90
2018-03-02T02:41:20.713Z,47.60
2018-03-02T02:43:48.979Z,48.30
2018-03-02T02:46:16.455Z,47.90
2018-03-02T02:48:43.941Z,47.50
2018-03-02T02:51:12.221Z,47.50
2018-03-02T02:53:39.703Z,47.50
2018-03-02T02:56:07.949Z,47.50
2018-03-02T02:58:35.551Z,47.50
2018-03-02T03:01:03.799Z,47.30
2018-03-02T03:03:31.289Z,47.30
2018-03-02T03:05:58.803Z,47.50
2018-03-02T03:08:27.103Z,47.90
2018-03-02T03:10:54.601Z,47.70
2018-03-02T03:13:22.143Z,47.90
2018-03-02T03:15:49.630Z,47.40
2018-03-02T03:18:17.113Z,47.40
2018-03-02T03:20:44.655Z,47.90
2018-03-02T03:23:12.130Z,47.50
2018-03-02T03:25:39.614Z,47.40
2018-03-02T03:28:07.142Z,47.80
2018-03-02T03:30:35.391Z,47.90
2018-03-02T03:33:02.875Z,47.80
2018-03-02T03:35:30.369Z,47.60
2018-03-02T03:37:57.860Z,47.80
2018-03-02T03:40:25.351Z,48.00
2018-03-02T03:42:52.854Z,48.30
2018-03-02T03:45:20.346Z,47.30
2018-03-02T03:47:47.828Z,47.90
2018-03-02T03:50:16.095Z,48.20
2018-03-02T03:52:43.778Z,48.20
2018-03-02T03:55:11.255Z,47.80
2018-03-02T03:57:38.767Z,48.20
2018-03-02T04:00:06.246Z,48.60
2018-03-02T04:02:33.742Z,48.40
2018-03-02T04:05:01.366Z,48.30
2018-03-02T04:07:28.846Z,48.30
2018-03-02T04:09:56.351Z,49.00
2018-03-02T04:12:23.831Z,48.40
2018-03-02T04:14:51.333Z,48.20
2018-03-02T04:17:19.579Z,48.50
2018-03-02T04:19:47.071Z,48.40
2018-03-02T04:22:14.566Z,48.40
2018-03-02T04:24:42.811Z,48.60
2018-03-02T04:27:10.323Z,48.60
2018-03-02T04:29:38.600Z,49.20
2018-03-02T04:32:06.201Z,49.10
2018-03-02T04:34:33.690Z,48.50
2018-03-02T04:37:01.239Z,48.00
2018-03-02T04:39:28.734Z,49.10
2018-03-02T04:41:56.283Z,48.60
2018-03-02T04:44:23.766Z,48.40
2018-03-02T04:46:51.322Z,48.60
2018-03-02T04:49:18.812Z,48.80
2018-03-02T04:51:46.334Z,48.80
2018-03-02T04:54:13.918Z,49.00
2018-03-02T04:56:42.182Z,49.50
2018-03-02T04:59:09.763Z,49.40
2018-03-02T05:01:37.335Z,49.60
2018-03-02T05:04:04.843Z,49.90
2018-03-02T05:06:32.324Z,49.90
2018-03-02T05:08:59.805Z,49.90
2018-03-02T05:11:27.301Z,49.90
2018-03-02T05:13:54.979Z,50.70
2018-03-02T05:16:22.479Z,50.60
2018-03-02T05:18:50.792Z,50.80
2018-03-02T05:21:18.275Z,50.10
2018-03-02T05:23:45.772Z,50.10
2018-03-02T05:26:13.305Z,50.40
2018-03-02T05:28:40.877Z,50.50
2018-03-02T05:31:08.367Z,50.60
2018-03-02T05:33:35.891Z,50.60
2018-03-02T05:36:03.490Z,50.80
2018-03-02T05:38:30.966Z,51.00
2018-03-02T05:40:58.472Z,50.80
2018-03-02T05:43:25.967Z,51.10
2018-03-02T05:45:53.464Z,51.10
2018-03-02T05:48:21.012Z,50.80
2018-03-02T05:50:48.494Z,51.00
2018-03-02T05:53:16.759Z,54.90
2018-03-02T05:55:44.242Z,54.70
2018-03-02T05:58:11.727Z,51.40
2018-03-02T06:00:39.315Z,51.20
2018-03-02T06:03:06.791Z,50.50
2018-03-02T06:05:34.287Z,50.30
2018-03-02T06:08:01.804Z,50.60
2018-03-02T06:10:30.082Z,51.50
2018-03-02T06:12:57.585Z,51.40
2018-03-02T06:15:25.067Z,51.10
2018-03-02T06:17:52.571Z,51.00
2018-03-02T06:20:20.046Z,50.40
2018-03-02T06:22:47.523Z,50.60
2018-03-02T06:25:15.019Z,51.10
2018-03-02T06:27:43.267Z,51.40
2018-03-02T06:30:10.759Z,51.40
2018-03-02T06:32:38.240Z,51.00
2018-03-02T06:35:05.723Z,51.00
2018-03-02T06:37:33.991Z,50.70
2018-03-02T06:40:01.482Z,50.60
2018-03-02T06:42:29.743Z,50.90
2018-03-02T06:44:57.257Z,50.80
2018-03-02T06:47:24.828Z,50.60
2018-03-02T06:49:52.396Z,50.40
2018-03-02T06:52:19.875Z,50.60
2018-03-02T06:54:47.407Z,50.90
2018-03-02T06:57:15.078Z,51.30
2018-03-02T06:59:42.559Z,50.80
2018-03-02T07:02:10.831Z,50.40
2018-03-02T07:04:38.408Z,50.30
2018-03-02T07:07:05.906Z,50.20
2018-03-02T07:09:34.154Z,50.60
2018-03-02T07:12:01.640Z,50.50
2018-03-02T07:14:29.212Z,50.40
2018-03-02T07:16:56.833Z,50.50
2018-03-02T07:19:24.351Z,50.20
2018-03-02T07:21:51.837Z,50.40
2018-03-02T07:24:20.087Z,49.60
2018-03-02T07:26:47.582Z,49.50
2018-03-02T07:29:15.060Z,49.70
2018-03-02T08:06:19.266Z,48.50
2018-03-02T08:09:22.652Z,48.00
2018-03-02T08:12:41.780Z,48.30
2018-03-02T08:16:21.365Z,48.00
2018-03-02T08:19:58.706Z,48.00
2018-03-02T15:48:12.971Z,39.20
2018-03-02T15:50:40.483Z,39.60
2018-03-02T15:53:08.019Z,39.70
2018-03-02T15:55:35.495Z,39.50
2018-03-02T15:58:02.991Z,39.70
2018-03-02T16:00:30.496Z,39.50
2018-03-02T16:02:57.982Z,39.90
2018-03-02T16:05:25.471Z,39.70
2018-03-02T16:07:53.051Z,39.90
2018-03-02T16:10:20.652Z,39.90
2018-03-02T16:12:48.155Z,39.90
2018-03-02T16:15:15.640Z,39.90
2018-03-02T16:17:43.135Z,40.50
2018-03-02T16:20:10.617Z,40.50
2018-03-02T16:22:38.886Z,40.50
2018-03-02T16:25:06.396Z,40.50
2018-03-02T16:27:33.932Z,40.50
2018-03-02T16:30:01.433Z,40.70
2018-03-02T16:32:29.005Z,40.60
2018-03-02T16:34:56.578Z,40.70
2018-03-02T16:37:24.059Z,41.20
2018-03-02T16:39:51.563Z,41.60
2018-03-02T16:42:19.039Z,41.40
2018-03-02T16:44:46.531Z,41.20
2018-03-02T16:47:14.018Z,41.20
2018-03-02T16:49:41.513Z,41.70
2018-03-02T16:52:08.998Z,41.70
2018-03-02T16:54:36.511Z,41.70
2018-03-02T16:57:04.000Z,41.70
2018-03-02T16:59:32.247Z,42.30
2018-03-02T17:01:59.739Z,42.30
2018-03-02T17:04:27.311Z,41.70
2018-03-02T17:06:54.900Z,43.00
2018-03-02T17:09:23.203Z,43.20
2018-03-02T17:11:50.713Z,43.10
2018-03-02T17:14:18.217Z,43.50
2018-03-02T17:16:46.483Z,44.50
2018-03-02T17:19:13.979Z,43.90
2018-03-02T17:21:41.468Z,43.90
2018-03-02T17:24:49.404Z,43.60
2018-03-02T17:27:16.968Z,43.50
2018-03-02T17:29:44.456Z,43.50
2018-03-02T17:32:11.988Z,43.80
2018-03-02T17:34:40.264Z,44.00
2018-03-02T17:37:09.305Z,44.10
2018-03-02T17:39:36.847Z,44.00
2018-03-02T17:42:04.450Z,43.90
2018-03-02T17:44:32.058Z,44.80
2018-03-02T17:46:59.564Z,44.40
2018-03-02T17:49:27.144Z,44.40
2018-03-02T17:51:55.427Z,45.20
2018-03-02T17:54:22.920Z,45.10
2018-03-02T17:56:51.176Z,45.30
2018-03-02T17:59:18.667Z,45.30
2018-03-02T18:01:46.907Z,45.50
2018-03-02T18:04:14.386Z,45.50
2018-03-02T18:06:41.876Z,45.50
2018-03-02T18:11:43.223Z,45.70
2018-03-02T18:14:10.716Z,46.80
2018-03-02T18:16:38.207Z,46.30
2018-03-02T18:19:05.718Z,45.80
2018-03-02T18:21:33.269Z,45.30
2018-03-02T18:24:01.518Z,45.50
2018-03-02T18:26:29.011Z,45.50
2018-03-02T18:28:56.491Z,45.50
2018-03-02T18:31:24.074Z,45.70
2018-03-02T18:33:51.602Z,45.70
2018-03-02T18:36:19.112Z,46.30
2018-03-02T18:38:47.376Z,46.10
2018-03-02T18:41:14.863Z,46.10
2018-03-02T18:43:42.467Z,46.70
2018-03-02T18:46:10.014Z,47.40
2018-03-02T18:48:38.270Z,53.20
2018-03-02T18:51:05.748Z,53.20
2018-03-02T18:53:33.247Z,52.60
2018-03-02T18:56:01.499Z,53.10
2018-03-02T18:58:28.999Z,53.00
2018-03-02T19:00:56.479Z,53.30
2018-03-02T19:03:24.790Z,54.40
2018-03-02T19:05:52.287Z,54.40
2018-03-02T19:08:19.771Z,55.70
2018-03-02T19:10:47.396Z,56.80
2018-03-02T19:13:14.970Z,57.60
2018-03-02T19:15:42.462Z,58.10
2018-03-02T19:18:09.951Z,58.40
2018-03-02T19:20:37.440Z,58.80
2018-03-02T19:23:04.924Z,59.30
2018-03-02T19:25:32.524Z,59.20
2018-03-02T19:28:00.063Z,64.80
2018-03-02T19:30:27.567Z,58.80
2018-03-02T19:32:55.063Z,58.70
2018-03-02T19:35:22.603Z,59.80
2018-03-02T19:37:50.884Z,61.20
2018-03-02T19:40:19.156Z,61.20
2018-03-02T19:42:46.762Z,61.10
2018-03-02T19:45:14.245Z,62.00
2018-03-02T19:47:41.744Z,62.80
2018-03-02T19:50:09.239Z,63.60
2018-03-02T19:52:36.825Z,64.30
2018-03-02T19:55:05.076Z,65.80
2018-03-02T19:57:32.583Z,65.70
2018-03-02T20:00:00.836Z,64.90
2018-03-02T20:02:28.573Z,64.80
2018-03-02T20:04:56.107Z,65.60
2018-03-02T20:07:23.674Z,65.90
2018-03-02T20:09:51.166Z,67.10
2018-03-02T20:12:19.416Z,70.30
2018-03-02T20:14:46.911Z,70.20
2018-03-02T20:17:14.487Z,72.90
2018-03-02T20:19:41.998Z,74.10
2018-03-02T20:22:09.474Z,76.00
2018-03-02T20:24:37.021Z,77.10
2018-03-02T20:27:04.504Z,77.70
2018-03-02T20:29:32.759Z,81.00
2018-03-02T20:32:00.260Z,81.70
2018-03-02T20:34:28.531Z,81.90
2018-03-02T20:36:56.132Z,81.90
2018-03-02T20:39:23.708Z,81.10
2018-03-02T20:41:51.277Z,82.00
2018-03-02T20:44:19.308Z,82.10
2018-03-02T20:46:46.799Z,82.60
2018-03-02T20:49:14.298Z,83.00
2018-03-02T20:51:41.799Z,85.00
2018-03-02T20:54:09.283Z,84.10
2018-03-02T20:56:36.776Z,84.60
2018-03-02T20:59:04.307Z,85.20
2018-03-02T21:01:31.831Z,85.30
2018-03-02T21:03:59.363Z,86.00
2018-03-02T21:06:26.975Z,86.70
2018-03-02T21:08:54.482Z,86.50
2018-03-02T21:11:21.968Z,87.30
2018-03-02T21:13:49.471Z,87.60
2018-03-02T21:16:16.957Z,87.60
2018-03-02T21:18:44.468Z,87.70
2018-03-02T21:21:11.959Z,87.60
2018-03-02T21:23:39.506Z,87.60
2018-03-02T21:26:07.015Z,88.40
2018-03-02T21:28:34.513Z,90.80
2018-03-02T21:31:02.092Z,89.90
2018-03-02T21:33:32.443Z,88.90
2018-03-02T21:35:57.095Z,87.90
2018-03-02T21:38:24.645Z,89.10
2018-03-02T21:40:52.882Z,90.00
2018-03-02T21:43:20.367Z,89.90
2018-03-02T21:45:48.637Z,89.90
2018-03-02T21:48:16.227Z,89.70
2018-03-02T21:50:44.495Z,90.60
2018-03-02T21:53:12.084Z,90.30
2018-03-02T21:55:39.575Z,90.30
2018-03-02T21:58:07.849Z,90.20
2018-03-02T22:00:35.425Z,90.20
2018-03-02T22:03:03.680Z,90.00
2018-03-02T22:05:31.166Z,90.00
2018-03-02T22:07:58.663Z,90.30
2018-03-02T22:10:26.923Z,90.20
2018-03-02T22:12:54.429Z,90.20
2018-03-02T22:15:21.956Z,90.00
2018-03-02T22:17:49.562Z,90.00
2018-03-02T22:20:17.830Z,90.20
2018-03-02T22:22:45.342Z,90.10
2018-03-02T22:25:12.832Z,90.30
2018-03-02T22:27:40.323Z,90.30
2018-03-02T22:30:07.925Z,90.30
2018-03-02T22:32:35.523Z,90.10
2018-03-02T22:35:03.019Z,90.30
2018-03-02T22:37:30.540Z,90.30
2018-03-02T22:39:58.062Z,90.30
2018-03-02T22:42:25.546Z,90.50
2018-03-02T22:44:53.042Z,90.10
2018-03-02T22:47:20.619Z,90.20
2018-03-02T22:49:48.196Z,90.30
2018-03-02T22:52:15.695Z,90.40
2018-03-02T22:54:43.186Z,90.30
2018-03-02T22:57:10.679Z,90.40
2018-03-02T22:59:38.164Z,90.30
2018-03-02T23:02:05.676Z,90.50
2018-03-02T23:04:33.174Z,90.50
2018-03-02T23:07:00.668Z,90.40
2018-03-02T23:09:28.163Z,90.50
2018-03-02T23:11:55.673Z,91.10
2018-03-02T23:14:23.199Z,91.00
2018-03-02T23:16:50.694Z,91.00
2018-03-02T23:19:18.201Z,91.20
2018-03-02T23:21:45.685Z,91.20
2018-03-02T23:24:13.287Z,91.40
2018-03-02T23:26:41.571Z,91.60
2018-03-02T23:29:09.073Z,91.40
2018-03-02T23:31:36.557Z,91.70
2018-03-02T23:34:04.047Z,91.70
2018-03-02T23:36:31.536Z,91.70
2018-03-02T23:38:59.037Z,91.70
2018-03-02T23:41:27.293Z,92.00
2018-03-02T23:43:54.812Z,91.90
2018-03-02T23:46:22.354Z,91.70
2018-03-02T23:48:49.838Z,91.70
2018-03-02T23:51:18.106Z,91.60
2018-03-02T23:53:45.693Z,91.60
2018-03-02T23:56:13.958Z,92.10
2018-03-02T23:58:41.473Z,91.70
